createdAt,value
2022-07-30T00:00:48.883Z,3.95
2022-07-30T00:03:16.633Z,3.45
2022-07-30T00:05:44.758Z,3.88
2022-07-30T00:08:14.849Z,4.35
2022-07-30T00:10:48.394Z,4.13
2022-07-30T00:13:21.274Z,4.00
2022-07-30T00:15:48.756Z,4.68
2022-07-30T00:18:16.552Z,4.82
2022-07-30T00:20:44.390Z,4.90
2022-07-30T00:23:14.832Z,5.10
2022-07-30T00:25:46.292Z,5.00
2022-07-30T00:28:15.477Z,5.43
2022-07-30T00:30:45.241Z,5.82
2022-07-30T00:33:17.149Z,5.82
2022-07-30T00:35:50.752Z,6.07
2022-07-30T00:38:19.753Z,6.93
2022-07-30T00:40:47.730Z,6.38
2022-07-30T00:43:26.197Z,6.28
2022-07-30T00:45:56.683Z,6.53
2022-07-30T00:48:29.362Z,6.70
2022-07-30T00:51:00.882Z,6.30
2022-07-30T00:53:28.662Z,6.60
2022-07-30T00:55:55.806Z,7.18
2022-07-30T00:58:23.334Z,6.30
2022-07-30T01:01:26.949Z,6.53
2022-07-30T01:03:54.253Z,7.03
2022-07-30T01:06:26.759Z,6.97
2022-07-30T01:09:03.814Z,8.00
2022-07-30T01:11:40.164Z,7.00
2022-07-30T01:14:13.150Z,7.18
2022-07-30T01:16:57.116Z,7.70
2022-07-30T01:19:51.807Z,6.90
2022-07-30T01:22:35.103Z,6.82
2022-07-30T01:25:27.996Z,7.20
2022-07-30T01:28:03.643Z,6.57
2022-07-30T01:30:40.490Z,6.53
2022-07-30T01:33:14.957Z,6.00
2022-07-30T01:35:45.956Z,6.70
2022-07-30T01:38:17.532Z,6.47
2022-07-30T01:40:51.979Z,6.60
2022-07-30T01:43:24.534Z,7.68
2022-07-30T01:45:56.743Z,6.60
2022-07-30T01:48:26.468Z,6.63
2022-07-30T01:50:58.245Z,5.90
2022-07-30T01:53:30.231Z,7.18
2022-07-30T01:56:00.567Z,6.70
2022-07-30T01:58:32.026Z,6.57
2022-07-30T02:01:10.768Z,6.43
2022-07-30T02:03:43.038Z,5.78
2022-07-30T02:06:25.510Z,5.70
2022-07-30T02:08:56.959Z,6.40
2022-07-30T02:11:47.558Z,6.93
2022-07-30T02:14:36.759Z,6.53
2022-07-30T02:17:05.805Z,5.45
2022-07-30T02:19:37.039Z,5.85
2022-07-30T02:22:14.653Z,5.97
2022-07-30T02:24:46.261Z,5.45
2022-07-30T02:27:28.833Z,5.85
2022-07-30T02:30:04.887Z,5.47
2022-07-30T02:32:36.740Z,5.90
2022-07-30T02:35:12.602Z,5.32
2022-07-30T02:37:44.181Z,5.50
2022-07-30T02:40:16.367Z,5.35
2022-07-30T02:42:47.252Z,5.90
2022-07-30T02:45:19.316Z,5.07
2022-07-30T02:47:55.352Z,4.88
2022-07-30T02:50:24.885Z,4.88
2022-07-30T02:53:01.627Z,4.80
2022-07-30T02:55:38.232Z,4.60
2022-07-30T02:58:08.099Z,4.63
2022-07-30T03:00:36.361Z,5.13
2022-07-30T03:03:10.754Z,5.03
2022-07-30T03:05:40.070Z,4.50
2022-07-30T03:08:13.443Z,5.32
2022-07-30T03:10:55.654Z,5.05
2022-07-30T03:13:38.912Z,4.82
2022-07-30T03:16:17.707Z,4.35
2022-07-30T03:18:59.427Z,5.10
2022-07-30T03:21:28.420Z,4.18
2022-07-30T03:24:05.554Z,5.32
2022-07-30T03:26:37.764Z,4.30
2022-07-30T03:29:07.126Z,4.90
2022-07-30T03:31:38.006Z,5.18
2022-07-30T03:34:07.851Z,5.25
2022-07-30T03:36:40.598Z,5.03
2022-07-30T03:39:11.184Z,5.05
2022-07-30T03:41:41.650Z,5.05
2022-07-30T03:44:16.392Z,5.28
2022-07-30T03:46:51.750Z,5.00
2022-07-30T03:49:29.486Z,5.55
2022-07-30T03:51:57.392Z,5.93
2022-07-30T03:54:34.164Z,5.32
2022-07-30T03:57:27.930Z,5.15
2022-07-30T04:00:03.883Z,5.22
2022-07-30T04:02:48.102Z,5.47
2022-07-30T04:05:43.779Z,5.80
2022-07-30T04:08:17.510Z,5.07
2022-07-30T04:10:58.740Z,5.88
2022-07-30T04:13:50.644Z,6.55
2022-07-30T04:16:42.117Z,6.25
2022-07-30T04:19:22.602Z,5.00
2022-07-30T04:21:54.207Z,5.57
2022-07-30T04:24:27.497Z,5.22
2022-07-30T04:27:08.193Z,5.25
2022-07-30T04:29:55.170Z,6.05
2022-07-30T04:32:23.225Z,5.25
2022-07-30T04:35:04.358Z,5.10
2022-07-30T04:37:59.055Z,5.32
2022-07-30T04:40:32.658Z,5.43
2022-07-30T04:43:00.190Z,4.97
2022-07-30T04:45:33.037Z,5.53
2022-07-30T04:48:05.672Z,4.70
2022-07-30T04:51:02.131Z,5.00
2022-07-30T04:53:34.751Z,5.22
2022-07-30T04:56:04.660Z,4.88
2022-07-30T04:58:34.105Z,5.50
2022-07-30T05:01:09.266Z,4.80
2022-07-30T05:03:40.899Z,5.95
2022-07-30T05:06:15.843Z,5.40
2022-07-30T05:08:52.329Z,5.20
2022-07-30T05:11:23.741Z,6.10
2022-07-30T05:13:55.046Z,5.38
2022-07-30T05:16:30.004Z,5.30
2022-07-30T05:19:07.876Z,5.40
2022-07-30T05:21:36.637Z,6.45
2022-07-30T05:24:05.014Z,6.00
2022-07-30T05:26:37.388Z,6.03
2022-07-30T05:29:07.176Z,5.45
2022-07-30T05:32:02.633Z,5.20
2022-07-30T05:34:34.627Z,5.13
2022-07-30T05:37:02.464Z,5.50
2022-07-30T05:39:32.856Z,5.05
2022-07-30T05:42:35.688Z,5.28
2022-07-30T05:45:03.425Z,4.68
2022-07-30T05:47:34.826Z,5.57
2022-07-30T05:50:13.159Z,5.95
2022-07-30T05:52:56.309Z,5.43
2022-07-30T05:55:53.178Z,6.03
2022-07-30T05:58:46.130Z,5.22
2022-07-30T06:01:32.871Z,5.22
2022-07-30T06:04:15.092Z,4.90
2022-07-30T06:07:09.977Z,6.18
2022-07-30T06:10:07.340Z,5.63
2022-07-30T06:13:32.025Z,5.88
2022-07-30T06:16:20.459Z,5.97
2022-07-30T06:19:01.516Z,6.28
2022-07-30T06:22:06.132Z,6.05
2022-07-30T06:24:49.243Z,5.97
2022-07-30T06:27:44.445Z,6.35
2022-07-30T06:30:35.446Z,5.82
2022-07-30T06:33:30.974Z,6.38
2022-07-30T06:36:19.539Z,6.20
2022-07-30T06:39:09.249Z,6.22
2022-07-30T06:42:29.292Z,6.60
2022-07-30T06:45:28.122Z,5.78
2022-07-30T06:48:23.949Z,7.95
2022-07-30T06:53:38.734Z,5.88
2022-07-30T06:56:40.773Z,6.25
2022-07-30T06:59:10.351Z,6.07
2022-07-30T07:01:50.806Z,5.88
2022-07-30T07:04:37.966Z,6.05
2022-07-30T07:07:13.415Z,6.07
2022-07-30T07:09:50.993Z,6.30
2022-07-30T07:12:50.820Z,5.65
2022-07-30T07:15:46.238Z,6.22
2022-07-30T07:18:27.537Z,5.75
2022-07-30T07:21:13.003Z,7.85
2022-07-30T07:23:57.236Z,6.00
2022-07-30T07:27:15.515Z,6.43
2022-07-30T07:30:01.862Z,6.60
2022-07-30T07:33:02.368Z,6.30
2022-07-30T07:35:48.801Z,6.45
2022-07-30T07:38:49.014Z,5.85
2022-07-30T07:41:48.903Z,7.63
2022-07-30T07:44:47.937Z,7.47
2022-07-30T07:47:55.693Z,7.50
2022-07-30T07:51:04.011Z,5.88
2022-07-30T07:53:42.231Z,6.47
2022-07-30T07:56:44.223Z,5.57
2022-07-30T07:59:21.616Z,5.40
2022-07-30T08:02:21.300Z,4.32
2022-07-30T08:05:14.952Z,3.72
2022-07-30T08:08:00.635Z,4.07
2022-07-30T08:11:37.913Z,5.13
2022-07-30T08:14:57.242Z,3.85
2022-07-30T08:18:06.337Z,3.80
2022-07-30T08:21:09.496Z,4.03
2022-07-30T08:23:48.331Z,4.43
2022-07-30T08:26:37.715Z,4.65
2022-07-30T08:29:17.396Z,4.00
2022-07-30T08:32:03.956Z,3.83
2022-07-30T08:34:44.360Z,3.70
2022-07-30T08:37:33.560Z,4.03
2022-07-30T08:40:09.358Z,4.60
2022-07-30T08:43:19.359Z,4.00
2022-07-30T08:46:30.156Z,4.70
2022-07-30T08:49:34.962Z,4.47
2022-07-30T08:52:03.256Z,4.50
2022-07-30T08:55:14.550Z,3.33
2022-07-30T08:57:43.550Z,3.85
2022-07-30T09:00:12.673Z,4.10
2022-07-30T09:02:40.746Z,3.97
2022-07-30T09:05:10.880Z,4.25
2022-07-30T09:07:44.211Z,3.70
2022-07-30T09:10:32.607Z,4.00
2022-07-30T09:13:04.373Z,3.70
2022-07-30T09:15:41.012Z,3.47
2022-07-30T09:18:17.686Z,3.17
2022-07-30T09:20:50.367Z,3.58
2022-07-30T09:23:20.277Z,4.07
2022-07-30T09:26:15.446Z,4.13
2022-07-30T09:29:20.402Z,3.63
2022-07-30T09:32:29.722Z,3.67
2022-07-30T09:35:33.353Z,3.50
2022-07-30T09:38:29.766Z,3.22
2022-07-30T09:41:46.467Z,3.65
2022-07-30T09:44:30.369Z,3.60
2022-07-30T09:47:13.491Z,3.08
2022-07-30T09:50:29.455Z,3.47
2022-07-30T09:53:18.765Z,3.20
2022-07-30T09:56:00.617Z,3.03
2022-07-30T09:58:46.245Z,2.95
2022-07-30T10:01:54.930Z,3.38
2022-07-30T10:07:57.323Z,2.60
2022-07-30T10:10:46.884Z,2.90
2022-07-30T10:13:22.185Z,3.13
2022-07-30T10:19:18.186Z,2.25
2022-07-30T10:22:27.084Z,2.45
2022-07-30T10:25:55.641Z,2.50
2022-07-30T10:28:49.139Z,2.65
2022-07-30T10:31:58.424Z,2.20
2022-07-30T10:34:47.729Z,2.55
2022-07-30T10:37:28.191Z,2.30
2022-07-30T10:40:39.530Z,2.22
2022-07-30T10:44:16.425Z,2.33
2022-07-30T10:47:16.939Z,2.50
2022-07-30T10:50:12.813Z,2.42
2022-07-30T10:53:08.382Z,3.05
2022-07-30T10:56:37.504Z,3.03
2022-07-30T10:59:19.192Z,2.67
2022-07-30T11:01:54.285Z,3.10
2022-07-30T11:04:34.790Z,2.78
2022-07-30T11:07:47.232Z,2.83
2022-07-30T11:10:48.044Z,2.97
2022-07-30T11:13:16.324Z,2.60
2022-07-30T11:20:15.527Z,3.17
2022-07-30T11:23:03.417Z,2.55
2022-07-30T11:25:51.225Z,3.00
2022-07-30T11:29:06.338Z,3.08
2022-07-30T11:32:06.819Z,3.00
2022-07-30T11:34:42.948Z,3.63
2022-07-30T11:37:32.145Z,3.70
2022-07-30T11:40:09.767Z,4.05
2022-07-30T11:42:48.468Z,3.45
2022-07-30T11:45:35.528Z,3.65
2022-07-30T11:48:24.742Z,3.42
2022-07-30T11:51:13.766Z,3.88
2022-07-30T11:53:46.411Z,3.42
2022-07-30T11:56:25.788Z,3.58
2022-07-30T11:59:06.704Z,3.95
2022-07-30T12:01:40.616Z,4.00
2022-07-30T12:04:12.327Z,3.83
2022-07-30T12:06:58.000Z,3.90
2022-07-30T12:09:36.729Z,5.05
2022-07-30T12:12:23.952Z,4.05
2022-07-30T12:15:00.217Z,4.82
2022-07-30T12:17:56.942Z,3.78
2022-07-30T12:20:48.396Z,4.10
2022-07-30T12:23:16.629Z,3.17
2022-07-30T12:26:00.449Z,3.80
2022-07-30T12:29:14.330Z,4.20
2022-07-30T12:32:08.355Z,3.80
2022-07-30T12:34:40.654Z,3.75
2022-07-30T12:37:31.445Z,3.90
2022-07-30T12:43:02.580Z,3.60
2022-07-30T12:45:50.524Z,3.70
2022-07-30T12:48:32.468Z,3.88
2022-07-30T12:51:14.760Z,3.15
2022-07-30T12:53:51.912Z,2.90
2022-07-30T12:56:40.394Z,2.83
2022-07-30T12:59:26.244Z,2.70
2022-07-30T13:02:34.244Z,2.17
2022-07-30T13:05:21.233Z,2.95
2022-07-30T13:08:10.860Z,2.95
2022-07-30T13:11:03.679Z,2.97
2022-07-30T13:13:51.477Z,2.90
2022-07-30T13:16:40.688Z,2.53
2022-07-30T13:19:18.392Z,2.60
2022-07-30T13:21:56.395Z,2.47
2022-07-30T13:24:56.333Z,3.03
2022-07-30T13:30:39.277Z,2.65
2022-07-30T13:33:15.903Z,2.90
2022-07-30T13:35:55.230Z,2.15
2022-07-30T13:38:38.691Z,2.45
2022-07-30T13:41:46.487Z,2.00
2022-07-30T13:44:22.893Z,2.38
2022-07-30T13:47:01.824Z,2.92
2022-07-30T13:49:33.458Z,2.35
2022-07-30T13:52:08.011Z,2.30
2022-07-30T13:54:57.989Z,2.13
2022-07-30T13:57:36.539Z,2.65
2022-07-30T14:00:46.792Z,2.85
2022-07-30T14:03:23.739Z,2.20
2022-07-30T14:06:10.913Z,2.58
2022-07-30T14:08:56.356Z,2.83
2022-07-30T14:11:37.683Z,2.90
2022-07-30T14:14:17.468Z,2.75
2022-07-30T14:16:53.636Z,2.38
2022-07-30T14:19:27.024Z,3.40
2022-07-30T14:22:10.004Z,2.70
2022-07-30T14:24:56.269Z,2.58
2022-07-30T14:27:39.629Z,2.30
2022-07-30T14:30:32.031Z,2.30
2022-07-30T14:33:11.878Z,2.47
2022-07-30T14:35:50.365Z,2.47
2022-07-30T14:41:12.351Z,2.58
2022-07-30T14:43:46.748Z,2.70
2022-07-30T14:46:25.590Z,2.50
2022-07-30T14:51:52.705Z,2.55
2022-07-30T14:54:34.442Z,2.65
2022-07-30T15:00:48.549Z,2.95
2022-07-30T15:03:36.709Z,2.20
2022-07-30T15:06:17.617Z,2.45
2022-07-30T15:09:11.918Z,2.63
2022-07-30T15:14:54.675Z,2.30
2022-07-30T15:17:33.269Z,2.05
2022-07-30T15:20:25.900Z,2.30
2022-07-30T15:23:24.432Z,2.40
2022-07-30T15:25:58.757Z,2.10
2022-07-30T15:28:42.679Z,2.08
2022-07-30T15:31:29.503Z,2.28
2022-07-30T15:34:04.142Z,2.58
2022-07-30T15:36:46.496Z,2.83
2022-07-30T15:39:57.644Z,2.33
2022-07-30T15:43:12.567Z,2.00
2022-07-30T15:46:23.038Z,2.30
2022-07-30T15:49:01.615Z,2.20
2022-07-30T15:51:49.514Z,2.20
2022-07-30T15:54:28.204Z,2.17
2022-07-30T15:57:16.461Z,2.05
2022-07-30T16:00:02.925Z,2.45
2022-07-30T16:02:58.223Z,2.03
2022-07-30T16:05:51.657Z,2.10
2022-07-30T16:08:46.195Z,2.10
2022-07-30T16:14:25.859Z,1.83
2022-07-30T16:17:09.391Z,2.20
2022-07-30T16:19:46.376Z,2.50
2022-07-30T16:22:24.715Z,2.08
2022-07-30T16:25:06.137Z,2.47
2022-07-30T16:27:44.523Z,2.50
2022-07-30T16:30:27.401Z,2.40
2022-07-30T16:33:12.316Z,2.58
2022-07-30T16:35:57.732Z,2.20
2022-07-30T16:38:52.060Z,1.83
2022-07-30T16:41:33.270Z,2.55
2022-07-30T16:44:32.179Z,2.22
2022-07-30T16:47:05.431Z,2.20
2022-07-30T16:52:32.656Z,2.20
2022-07-30T16:55:14.334Z,2.60
2022-07-30T17:01:24.155Z,2.65
2022-07-30T17:04:23.869Z,2.38
2022-07-30T17:07:07.623Z,2.45
2022-07-30T17:09:52.487Z,2.10
2022-07-30T17:12:32.669Z,2.15
2022-07-30T17:15:31.944Z,2.17
2022-07-30T17:18:48.387Z,1.90
2022-07-30T17:21:33.743Z,2.40
2022-07-30T17:24:26.618Z,2.53
2022-07-30T17:27:11.364Z,3.35
2022-07-30T17:29:53.026Z,2.72
2022-07-30T17:32:31.666Z,3.42
2022-07-30T17:35:13.721Z,2.40
2022-07-30T17:37:49.093Z,2.45
2022-07-30T17:43:25.059Z,2.80
2022-07-30T17:46:06.979Z,2.83
2022-07-30T17:48:47.315Z,2.88
2022-07-30T17:51:35.874Z,2.55
2022-07-30T17:54:20.130Z,2.80
2022-07-30T17:57:42.586Z,3.20
2022-07-30T18:00:32.647Z,2.70
2022-07-30T18:03:21.818Z,2.45
2022-07-30T18:06:18.215Z,2.30
2022-07-30T18:12:24.077Z,2.58
2022-07-30T18:15:04.121Z,2.60
2022-07-30T18:17:48.542Z,2.60
2022-07-30T18:20:38.370Z,3.17
2022-07-30T18:23:34.986Z,2.95
2022-07-30T18:29:45.847Z,2.47
2022-07-30T18:32:27.456Z,2.63
2022-07-30T18:35:13.788Z,2.85
2022-07-30T18:37:51.209Z,2.50
2022-07-30T18:40:24.093Z,2.45
2022-07-30T18:43:05.947Z,2.42
2022-07-30T18:45:38.364Z,2.83
2022-07-30T18:48:09.304Z,3.00
2022-07-30T18:50:36.586Z,3.47
2022-07-30T18:53:15.285Z,2.40
2022-07-30T18:55:44.647Z,2.88
2022-07-30T18:58:17.167Z,2.60
2022-07-30T19:01:06.670Z,2.90
2022-07-30T19:03:35.732Z,3.05
2022-07-30T19:06:11.967Z,3.67
2022-07-30T19:08:45.156Z,2.60
2022-07-30T19:11:18.025Z,3.33
2022-07-30T19:13:51.387Z,3.63
2022-07-30T19:16:34.716Z,4.63
2022-07-30T19:19:04.630Z,2.53
2022-07-30T19:21:36.448Z,2.20
2022-07-30T19:24:17.093Z,3.20
2022-07-30T19:26:52.923Z,2.95
2022-07-30T19:29:33.077Z,2.83
2022-07-30T19:32:17.059Z,3.13
2022-07-30T19:34:47.959Z,3.30
2022-07-30T19:37:27.617Z,2.67
2022-07-30T19:40:06.068Z,3.38
2022-07-30T19:42:41.442Z,3.20
2022-07-30T19:45:17.074Z,2.55
2022-07-30T19:47:49.886Z,2.60
2022-07-30T19:50:17.187Z,3.30
2022-07-30T19:52:51.514Z,2.50
2022-07-30T19:58:18.517Z,2.42
2022-07-30T20:00:49.396Z,3.10
2022-07-30T20:03:26.262Z,2.78
2022-07-30T20:06:03.232Z,2.97
2022-07-30T20:08:31.415Z,2.45
2022-07-30T20:11:08.552Z,3.03
2022-07-30T20:13:57.853Z,3.00
2022-07-30T20:17:04.604Z,3.75
2022-07-30T20:19:47.597Z,3.40
2022-07-30T20:22:27.436Z,2.42
2022-07-30T20:25:01.383Z,3.03
2022-07-30T20:30:50.477Z,2.70
2022-07-30T20:33:41.566Z,2.97
2022-07-30T20:36:11.880Z,2.25
2022-07-30T20:38:52.847Z,4.38
2022-07-30T20:41:25.459Z,4.57
2022-07-30T20:44:06.937Z,2.50
2022-07-30T20:49:48.127Z,2.70
2022-07-30T20:52:34.490Z,2.53
2022-07-30T20:55:22.025Z,2.85
2022-07-30T20:58:12.863Z,2.50
2022-07-30T21:00:55.928Z,2.53
2022-07-30T21:03:35.908Z,2.63
2022-07-30T21:06:18.262Z,2.60
2022-07-30T21:09:02.689Z,2.33
2022-07-30T21:14:31.889Z,2.80
2022-07-30T21:17:06.752Z,3.28
2022-07-30T21:19:53.839Z,2.67
2022-07-30T21:22:33.842Z,3.00
2022-07-30T21:25:02.637Z,2.58
2022-07-30T21:27:43.826Z,3.50
2022-07-30T21:30:28.843Z,2.88
2022-07-30T21:33:24.623Z,3.05
2022-07-30T21:36:10.357Z,2.90
2022-07-30T21:38:42.192Z,3.10
2022-07-30T21:41:40.092Z,2.95
2022-07-30T21:44:09.712Z,2.92
2022-07-30T21:46:50.123Z,3.20
2022-07-30T21:49:18.293Z,2.97
2022-07-30T21:51:49.533Z,4.30
2022-07-30T21:54:29.388Z,3.45
2022-07-30T21:57:02.524Z,3.20
2022-07-30T21:59:36.240Z,3.75
2022-07-30T22:02:18.719Z,2.67
2022-07-30T22:04:54.231Z,3.10
2022-07-30T22:07:29.945Z,4.47
2022-07-30T22:10:15.508Z,3.28
2022-07-30T22:12:56.525Z,2.50
2022-07-30T22:15:49.500Z,3.05
2022-07-30T22:18:27.797Z,2.90
2022-07-30T22:21:06.118Z,3.50
2022-07-30T22:23:41.088Z,3.20
2022-07-30T22:26:24.435Z,2.42
2022-07-30T22:28:59.825Z,3.17
2022-07-30T22:31:39.515Z,2.72
2022-07-30T22:34:21.379Z,2.70
2022-07-30T22:37:12.849Z,2.95
2022-07-30T22:39:54.650Z,2.80
2022-07-30T22:42:30.832Z,2.72
2022-07-30T22:45:47.116Z,2.83
2022-07-30T22:48:28.113Z,2.78
2022-07-30T22:51:02.289Z,2.60
2022-07-30T22:53:56.803Z,2.33
2022-07-30T22:56:24.443Z,2.80
2022-07-30T22:58:55.063Z,2.55
2022-07-30T23:01:25.271Z,2.70
2022-07-30T23:04:07.277Z,3.08
2022-07-30T23:06:51.017Z,2.92
2022-07-30T23:09:28.799Z,2.75
2022-07-30T23:12:15.410Z,3.08
2022-07-30T23:12:19.636Z,2.90
2022-07-30T23:12:22.506Z,2.47
2022-07-30T23:14:56.178Z,2.90
2022-07-30T23:17:26.188Z,2.67
2022-07-30T23:19:54.145Z,2.78
2022-07-30T23:22:26.037Z,2.67
2022-07-30T23:24:53.297Z,2.72
2022-07-30T23:27:23.611Z,2.78
2022-07-30T23:29:56.903Z,2.78
2022-07-30T23:32:29.582Z,2.35
2022-07-30T23:35:04.375Z,2.65
2022-07-30T23:37:48.476Z,2.70
2022-07-30T23:40:22.912Z,2.85
2022-07-30T23:42:52.890Z,3.60
2022-07-30T23:45:24.256Z,3.22
2022-07-30T23:48:03.538Z,2.47
2022-07-30T23:50:34.611Z,3.22
2022-07-30T23:53:03.038Z,3.70
2022-07-30T23:55:31.877Z,3.45
2022-07-30T23:58:00.777Z,2.90
